createdAt,value
2019-05-07T00:00:12.628Z,1.07
2019-05-07T00:15:12.566Z,1.02
2019-05-07T00:30:12.611Z,1.19
2019-05-07T00:45:17.646Z,1.27
2019-05-07T01:00:13.037Z,1.04
2019-05-07T01:15:04.470Z,1.03
2019-05-07T01:30:04.324Z,1.01
2019-05-07T01:45:04.392Z,1.21
2019-05-07T02:00:04.392Z,1.08
2019-05-07T02:15:04.494Z,1.03
2019-05-07T02:30:04.715Z,1.05
2019-05-07T02:45:05.023Z,1.21
2019-05-07T03:00:04.852Z,1.05
2019-05-07T03:15:04.858Z,1.01
2019-05-07T03:30:04.749Z,1.15
2019-05-07T03:45:04.676Z,1.3
2019-05-07T04:00:04.714Z,1.16
2019-05-07T04:15:04.751Z,1.07
2019-05-07T04:30:04.795Z,1.24
2019-05-07T04:45:04.832Z,1.2
2019-05-07T05:00:05.130Z,1.21
2019-05-07T05:15:05.155Z,1.28
2019-05-07T05:30:05.193Z,1.32
2019-05-07T05:45:06.138Z,1.4
2019-05-07T06:00:06.175Z,1.36
2019-05-07T06:15:06.204Z,1.37
2019-05-07T06:30:06.250Z,1.51
2019-05-07T06:45:07.709Z,1.31
2019-05-07T07:00:07.803Z,1.39
2019-05-07T07:15:07.854Z,1.53
2019-05-07T07:30:07.875Z,1.76
2019-05-07T07:45:07.906Z,1.45
2019-05-07T08:00:11.889Z,1.45
2019-05-07T08:15:16.611Z,1.33
2019-05-07T08:30:11.816Z,1.46
2019-05-07T08:45:03.578Z,1.42
2019-05-07T09:00:06.285Z,1.36
2019-05-07T09:15:06.927Z,1.61
2019-05-07T09:30:12.651Z,1.92
2019-05-07T09:45:03.111Z,1.95
2019-05-07T10:00:07.416Z,1.87
2019-05-07T10:15:07.815Z,1.84
2019-05-07T10:30:08.240Z,1.83
2019-05-07T10:45:10.312Z,2.13
2019-05-07T11:00:12.353Z,1.84
2019-05-07T11:15:07.903Z,1.9
2019-05-07T11:30:11.782Z,1.87
2019-05-07T11:45:12.148Z,2.12
2019-05-07T12:00:09.960Z,1.83
2019-05-07T12:15:12.461Z,1.73
2019-05-07T12:30:12.222Z,1.7
2019-05-07T12:45:03.003Z,1.71
2019-05-07T13:00:04.176Z,1.81
2019-05-07T13:15:04.233Z,1.68
2019-05-07T13:30:04.253Z,1.62
2019-05-07T13:45:04.296Z,1.76
2019-05-07T14:00:05.182Z,1.81
2019-05-07T14:15:05.184Z,1.7
2019-05-07T14:30:06.614Z,1.69
2019-05-07T14:45:07.785Z,1.69
2019-05-07T15:00:08.758Z,1.89
2019-05-07T15:15:08.421Z,1.66
2019-05-07T15:30:11.495Z,1.6
2019-05-07T15:45:06.760Z,1.67
2019-05-07T16:00:09.877Z,1.82
2019-05-07T16:15:13.482Z,1.67
2019-05-07T16:30:02.485Z,1.6
2019-05-07T16:45:03.303Z,1.62
2019-05-07T17:00:03.351Z,1.78
2019-05-07T17:15:03.892Z,1.74
2019-05-07T17:30:04.255Z,1.69
2019-05-07T17:45:06.110Z,1.81
2019-05-07T18:00:07.207Z,1.85
2019-05-07T18:15:08.434Z,1.81
2019-05-07T18:30:09.016Z,1.58
2019-05-07T18:45:12.307Z,1.48
2019-05-07T19:00:06.165Z,1.26
2019-05-07T19:15:06.099Z,1.23
2019-05-07T19:30:06.136Z,1.1
2019-05-07T19:45:06.844Z,0.93
2019-05-07T20:00:06.458Z,0.98
2019-05-07T20:15:07.521Z,1.15
2019-05-07T20:30:08.119Z,1.11
2019-05-07T20:45:08.242Z,0.99
2019-05-07T21:00:08.396Z,1.13
2019-05-07T21:15:12.353Z,1.08
2019-05-07T21:30:13.058Z,1.03
2019-05-07T21:45:12.228Z,0.99
2019-05-07T22:00:12.694Z,0.99
2019-05-07T22:15:04.437Z,1.01
2019-05-07T22:30:12.585Z,1.13
2019-05-07T22:45:12.392Z,1.23
2019-05-07T23:00:12.431Z,1.03
2019-05-07T23:15:06.551Z,0.99
2019-05-07T23:30:06.138Z,0.97
2019-05-07T23:45:06.430Z,0.81
